Time;durP1;ratioP1;P1;durP2;ratioP2;P2;SDS_P1;SDS_P2;PMS_P1;PMS_P2;Temp;Humidity;BMP_temperature;BMP_pressure;BME280_temperature;BME280_humidity;BME280_pressure;Samples;Min_cycle;Max_cycle;Signal;HPM_P1;HPM_P2
2023/07/06 00:02:40;;;;;;;;;7.00;7.00;;;;;;;;5;36696552;48775800;-60
2023/07/06 00:05:32;;;;;;;;;;;;;;;;;;6;23147269;37509386;-60
2023/07/06 00:08:52;;;;;;;;;5.50;5.50;;;;;;;;640144;28;33840350;-59
2023/07/06 00:12:10;;;;;;;;;;;;;;;;;;5;36931968;43990781;-58
2023/07/06 00:15:17;;;;;;;;;7.00;7.00;;;;;;;;7;19430089;32627526;-60
2023/07/06 00:18:29;;;;;;;;;7.50;7.50;;;;;;;;1516147;28;30781232;-59
2023/07/06 00:21:20;;;;;;;;;6.50;6.50;;;;;;;;2232144;28;26635707;-60
2023/07/06 00:24:24;;;;;;;;;7.50;5.50;;;;;;;;7;18987145;31994787;-60
2023/07/06 00:26:49;;;;;;;;;7.67;7.00;;;;;;;;2287727;28;12369156;-59
2023/07/06 00:30:20;;;;;;;;;;;;;;;;;;3057106;28;35975214;-59
2023/07/06 00:33:12;;;;;;;;;3.00;3.00;;;;;;;;1164047;28;22449797;-59
2023/07/06 00:35:39;;;;;;;;;6.25;5.75;;;;;;;;73853;28;28523105;-60
2023/07/06 00:39:15;;;;;;;;;8.50;5.50;;;;;;;;5;37553902;50073599;-60
2023/07/06 00:42:30;;;;;;;;;7.00;6.00;;;;;;;;6;24098574;40420094;-60
2023/07/06 00:46:10;;;;;;;;;4.50;4.50;;;;;;;;5;36562567;46482979;-61
2023/07/06 00:49:01;;;;;;;;;;;;;;;;;;5;31901464;40995767;-59
2023/07/06 00:52:29;;;;;;;;;7.50;7.50;;;;;;;;6;28046313;43277376;-61
2023/07/06 00:55:33;;;;;;;;;;;;;;;;;;6;24467214;41988671;-59
2023/07/06 00:58:42;;;;;;;;;2.50;2.50;;;;;;;;7;20681756;31054737;-60
2023/07/06 01:01:50;;;;;;;;;6.00;6.00;;;;;;;;5;33385879;43729913;-58
2023/07/06 01:05:02;;;;;;;;;1.00;1.00;;;;;;;;6;25092453;37025198;-58
2023/07/06 01:08:48;;;;;;;;;7.50;7.50;;;;;;;;6;30834922;40724908;-59
2023/07/06 01:11:14;;;;;;;;;6.50;6.25;;;;;;;;509838;28;56899063;-59
2023/07/06 01:13:58;;;;;;;;;5.50;5.50;;;;;;;;337129;28;24529842;-60
2023/07/06 01:16:39;;;;;;;;;5.00;5.00;;;;;;;;15;6423780;17954590;-60
2023/07/06 01:19:40;;;;;;;;;4.00;4.00;;;;;;;;1697191;28;36887707;-60
2023/07/06 01:22:48;;;;;;;;;3.50;3.50;;;;;;;;1202800;28;62102836;-60
2023/07/06 01:26:15;;;;;;;;;5.50;4.50;;;;;;;;3276790;28;38101169;-59
2023/07/06 01:29:57;;;;;;;;;3.50;3.50;;;;;;;;5;37573390;46947554;-59
2023/07/06 01:34:20;;;;;;;;;7.50;5.00;;;;;;;;688914;28;56364297;-59
2023/07/06 01:40:28;;;;;;;;;;;;;;;;;;3;114440699;154648505;-61
2023/07/06 01:45:28;;;;;;;;;3.50;3.50;;;;;;;;3;86735178;96965523;-60
2023/07/06 01:49:00;;;;;;;;;6.00;5.00;;;;;;;;3;77581446;79482319;-60
2023/07/06 01:52:31;;;;;;;;;3.00;3.00;;;;;;;;3;69832487;79643192;-60
2023/07/06 01:56:01;;;;;;;;;2.50;2.50;;;;;;;;4;46438762;56293677;-58
2023/07/06 02:02:01;;;;;;;;;3.00;3.00;;;;;;;;3;101592069;138001304;-61
2023/07/06 02:05:43;;;;;;;;;5.00;3.50;;;;;;;;167349;28;89934439;-60
2023/07/06 02:09:54;;;;;;;;;7.50;7.50;;;;;;;;333235;28;72289013;-60
2023/07/06 02:13:41;;;;;;;;;2.50;2.50;;;;;;;;4;49939255;71576770;-60
2023/07/06 02:17:22;;;;;;;;;5.00;5.00;;;;;;;;4;42936089;63699996;-60
2023/07/06 02:21:41;;;;;;;;;7.00;7.00;;;;;;;;4;45321642;75563664;-60
2023/07/06 02:25:39;;;;;;;;;11.00;6.50;;;;;;;;4;48861163;60781468;-59
2023/07/06 02:29:29;;;;;;;;;6.00;6.00;;;;;;;;4;49091175;69952468;-60
2023/07/06 02:32:56;;;;;;;;;10.50;10.50;;;;;;;;4;42753489;65241431;-61
2023/07/06 02:36:16;;;;;;;;;6.00;6.00;;;;;;;;5;24789926;51026265;-61
2023/07/06 02:40:02;;;;;;;;;4.00;4.00;;;;;;;;5;34390465;52651144;-60
2023/07/06 02:43:07;;;;;;;;;;;;;;;;;;4;36898746;59913194;-60
2023/07/06 02:46:57;;;;;;;;;5.50;5.50;;;;;;;;5;40127363;49033126;-61
2023/07/06 02:50:40;;;;;;;;;5.50;5.50;;;;;;;;5;39289224;55032086;-60
2023/07/06 02:54:32;;;;;;;;;2.50;2.50;;;;;;;;5;34875851;50858303;-61
2023/07/06 02:57:44;;;;;;;;;5.00;5.00;;;;;;;;5;31348182;54240926;-59
2023/07/06 03:00:59;;;;;;;;;8.00;7.50;;;;;;;;39874;28;23345042;-60
2023/07/06 03:04:19;;;;;;;;;8.50;8.50;;;;;;;;5;27899840;51034078;-60
2023/07/06 03:07:15;;;;;;;;;;;;;;;;;;5;28754712;40190639;-60
2023/07/06 03:11:00;;;;;;;;;10.50;9.50;;;;;;;;6;23728036;42268692;-60
2023/07/06 03:14:24;;;;;;;;;;;;;;;;;;5;31485727;51960791;-60
2023/07/06 03:17:03;;;;;;;;;8.00;8.00;;;;;;;;32455;28;20665253;-60
2023/07/06 03:19:28;;;;;;;;;10.00;9.33;;;;;;;;2573841;28;20217973;-59
2023/07/06 03:21:58;;;;;;;;;10.25;9.00;;;;;;;;4896664;28;2727348;-60
2023/07/06 03:24:23;;;;;;;;;10.00;10.00;;;;;;;;5009060;28;33057;-59
2023/07/06 03:26:49;;;;;;;;;6.67;6.33;;;;;;;;4993269;28;31895;-60
2023/07/06 03:30:29;;;;;;;;;7.00;6.00;;;;;;;;518741;28;46812506;-61
2023/07/06 03:33:28;;;;;;;;;;;;;;;;;;5;31191094;48815772;-61
2023/07/06 03:37:07;;;;;;;;;9.00;8.50;;;;;;;;1084650;28;40013274;-58
2023/07/06 03:40:13;;;;;;;;;5.00;5.00;;;;;;;;5;20339825;52229494;-61
2023/07/06 03:43:37;;;;;;;;;9.00;8.00;;;;;;;;4663124;28;21537120;-61
2023/07/06 03:47:17;;;;;;;;;5.50;5.50;;;;;;;;5;38586817;53070014;-60
2023/07/06 03:52:30;;;;;;;;;6.50;6.50;;;;;;;;206911;28;134589530;-60
2023/07/06 03:57:25;;;;;;;;;;;;;;;;;;3;94710355;127389720;-60
2023/07/06 04:02:49;;;;;;;;;9.00;9.00;;;;;;;;4;58572879;90511328;-60
2023/07/06 04:09:26;;;;;;;;;6.00;6.00;;;;;;;;3;105106618;130554414;-58
2023/07/06 04:12:46;;;;;;;;;;;;;;;;;;3;69244973;81128704;-59
2023/07/06 04:15:17;;;;;;;;;7.50;7.50;;;;;;;;166166;28;33100866;-60
2023/07/06 04:18:03;;;;;;;;;10.50;10.50;;;;;;;;1062567;28;41365990;-60
2023/07/06 04:20:39;;;;;;;;;14.00;9.50;;;;;;;;48326;28;36924144;-59
2023/07/06 04:25:19;;;;;;;;;7.00;6.00;;;;;;;;4756290;28;72714477;-61
2023/07/06 04:29:22;;;;;;;;;;;;;;;;;;3;81821866;110619584;-60
2023/07/06 04:33:01;;;;;;;;;7.00;7.00;;;;;;;;6;32222231;36999144;-60
2023/07/06 04:36:02;;;;;;;;;;;;;;;;;;169356;28;40694795;-60
2023/07/06 04:39:15;;;;;;;;;5.00;5.00;;;;;;;;6;20782870;50149777;-59
2023/07/06 04:43:06;;;;;;;;;6.00;6.00;;;;;;;;4;53397805;67843392;-59
2023/07/06 04:46:23;;;;;;;;;6.50;6.50;;;;;;;;6;23769185;47719864;-59
2023/07/06 04:49:51;;;;;;;;;;;;;;;;;;4;53171362;65796595;-59
2023/07/06 04:53:07;;;;;;;;;7.50;7.50;;;;;;;;5;20241624;56508114;-60
2023/07/06 04:55:33;;;;;;;;;10.33;9.33;;;;;;;;4993143;28;111595;-58
2023/07/06 04:58:53;;;;;;;;;5.50;5.50;;;;;;;;3618602;28;32529569;-60
2023/07/06 05:01:19;;;;;;;;;14.50;14.00;;;;;;;;59058;28;29474965;-58
2023/07/06 05:05:03;;;;;;;;;9.00;9.00;;;;;;;;2376474;28;72914181;-58
2023/07/06 05:08:29;;;;;;;;;9.00;9.00;;;;;;;;172407;28;52177493;-58
2023/07/06 05:11:30;;;;;;;;;;;;;;;;;;5;18954255;51570013;-59
2023/07/06 05:14:39;;;;;;;;;6.50;6.50;;;;;;;;7;14964825;38133226;-59
2023/07/06 05:17:55;;;;;;;;;;;;;;;;;;373527;28;36334162;-60
2023/07/06 05:23:42;;;;;;;;;10.50;5.00;;;;;;;;311877;28;122017297;-59
2023/07/06 05:29:36;;;;;;;;;11.00;11.00;;;;;;;;3;100570063;135473963;-59
2023/07/06 05:34:10;;;;;;;;;8.50;8.50;;;;;;;;4;66470268;72693955;-59
2023/07/06 05:40:21;;;;;;;;;2.50;2.50;;;;;;;;3;86014318;129717439;-58
2023/07/06 05:44:10;;;;;;;;;;;;;;;;;;3;89163808;92157256;-58
2023/07/06 05:47:37;;;;;;;;;4.00;4.00;;;;;;;;4;55315784;59068527;-59
2023/07/06 05:52:33;;;;;;;;;5.50;5.50;;;;;;;;7;16930550;40858331;-58
2023/07/06 05:55:36;;;;;;;;;4.00;4.00;;;;;;;;4;29458385;66988705;-59
2023/07/06 06:00:36;;;;;;;;;;;;;;;;;;3;109922880;133922188;-58
2023/07/06 06:05:15;;;;;;;;;9.00;7.00;;;;;;;;4;62886001;72424273;-58
2023/07/06 06:09:56;;;;;;;;;9.00;9.00;;;;;;;;520068;28;136181129;-58
2023/07/06 06:12:22;;;;;;;;;6.67;6.67;;;;;;;;3939264;28;12700410;-58
2023/07/06 06:14:48;;;;;;;;;6.33;6.33;;;;;;;;5024710;28;8822;-59
2023/07/06 06:17:28;;;;;;;;;5.00;2.50;;;;;;;;1296863;28;31815903;-58
2023/07/06 06:22:33;;;;;;;;;;;;;;;;;;222820;28;120652179;-59
2023/07/06 06:25:46;;;;;;;;;5.00;5.00;;;;;;;;169124;28;69504495;-58
2023/07/06 06:28:11;;;;;;;;;6.33;6.33;;;;;;;;3685105;28;14132878;-59
2023/07/06 06:30:48;;;;;;;;;4.50;4.50;;;;;;;;2150924;28;31143784;-58
2023/07/06 06:36:41;;;;;;;;;;;;;;;;;;310178;28;117053443;-58
2023/07/06 06:39:07;;;;;;;;;10.00;10.00;;;;;;;;305374;28;65529919;-59
2023/07/06 06:41:54;;;;;;;;;;;;;;;;;;232235;28;40637693;-59
2023/07/06 06:45:00;;;;;;;;;1.50;1.50;;;;;;;;247905;28;82954583;-59
2023/07/06 06:50:37;;;;;;;;;4.00;4.00;;;;;;;;7;5245208;80813318;-58
2023/07/06 06:55:19;;;;;;;;;6.00;6.00;;;;;;;;3;73237224;98862291;-58
2023/07/06 06:59:59;;;;;;;;;2.00;2.00;;;;;;;;2;148182460;148182460;-59
2023/07/06 07:06:14;;;;;;;;;1.00;1.00;;;;;;;;3;108056804;121126882;-59
2023/07/06 07:11:52;;;;;;;;;4.00;2.50;;;;;;;;3;117934768;119501059;-59
2023/07/06 07:14:53;;;;;;;;;1.50;1.50;;;;;;;;3;50157057;129967682;-59
2023/07/06 07:17:39;;;;;;;;;;;;;;;;;;261266;28;107745861;-59
2023/07/06 07:20:05;;;;;;;;;6.67;6.00;;;;;;;;4927107;28;2063554;-60
2023/07/06 07:22:31;;;;;;;;;6.00;4.75;;;;;;;;4998172;28;31812;-58
2023/07/06 07:24:58;;;;;;;;;4.67;4.67;;;;;;;;4991129;28;31728;-58
2023/07/06 07:27:59;;;;;;;;;8.00;6.50;;;;;;;;2969754;28;26547904;-59
2023/07/06 07:31:11;;;;;;;;;2.50;2.50;;;;;;;;9;9218629;31882735;-59
2023/07/06 07:33:37;;;;;;;;;3.33;3.33;;;;;;;;2339698;28;31340274;-59
2023/07/06 07:37:15;;;;;;;;;5.00;5.00;;;;;;;;635074;28;61680824;-59
2023/07/06 07:40:24;;;;;;;;;9.50;9.50;;;;;;;;6;20828363;52337310;-58
2023/07/06 07:43:48;;;;;;;;;1.50;1.50;;;;;;;;676108;28;39233382;-59
2023/07/06 07:46:41;;;;;;;;;9.00;2.00;;;;;;;;2415884;28;37806309;-59
2023/07/06 07:49:07;;;;;;;;;3.33;3.33;;;;;;;;5005265;28;63874;-59
2023/07/06 07:51:32;;;;;;;;;3.67;3.33;;;;;;;;5008208;28;50262;-59
2023/07/06 07:53:57;;;;;;;;;5.00;4.67;;;;;;;;5008323;28;42533;-59
2023/07/06 07:56:24;;;;;;;;;4.67;4.67;;;;;;;;5021441;28;42411;-59
2023/07/06 07:58:49;;;;;;;;;6.00;5.33;;;;;;;;5009136;28;42259;-57
2023/07/06 08:01:16;;;;;;;;;5.00;4.00;;;;;;;;5006636;28;31810;-59
2023/07/06 08:03:42;;;;;;;;;4.67;4.33;;;;;;;;5006145;28;31896;-59
2023/07/06 08:06:08;;;;;;;;;4.33;4.33;;;;;;;;5015107;28;44807;-60
2023/07/06 08:08:35;;;;;;;;;5.00;5.00;;;;;;;;5035256;28;10799;-59
2023/07/06 08:11:04;;;;;;;;;4.00;4.00;;;;;;;;5033880;28;11469;-59
2023/07/06 08:13:30;;;;;;;;;6.75;5.25;;;;;;;;5029091;28;8873;-59
2023/07/06 08:15:55;;;;;;;;;5.00;4.67;;;;;;;;5027898;28;8842;-59
2023/07/06 08:18:20;;;;;;;;;3.00;3.00;;;;;;;;5028627;28;8825;-58
2023/07/06 08:20:53;;;;;;;;;4.33;4.00;;;;;;;;5022189;28;8819;-59
2023/07/06 08:23:19;;;;;;;;;4.00;4.00;;;;;;;;5026173;28;8817;-59
2023/07/06 08:25:45;;;;;;;;;5.67;5.00;;;;;;;;5026771;28;8915;-59
2023/07/06 08:28:14;;;;;;;;;4.25;3.00;;;;;;;;5029177;28;9079;-58
2023/07/06 08:30:42;;;;;;;;;5.00;4.25;;;;;;;;5028624;28;8796;-58
2023/07/06 08:33:09;;;;;;;;;5.50;5.00;;;;;;;;5022837;28;8794;-58
2023/07/06 08:35:35;;;;;;;;;4.00;4.00;;;;;;;;5020191;28;8822;-58
2023/07/06 08:38:04;;;;;;;;;4.00;3.00;;;;;;;;5027606;28;8795;-59
2023/07/06 08:40:30;;;;;;;;;2.67;2.67;;;;;;;;5025450;28;8913;-59
2023/07/06 08:42:56;;;;;;;;;3.67;3.67;;;;;;;;5022538;28;9009;-58
2023/07/06 08:45:34;;;;;;;;;4.67;4.67;;;;;;;;5027606;28;9624;-59
2023/07/06 08:48:00;;;;;;;;;5.00;5.00;;;;;;;;5029450;28;8963;-58
2023/07/06 08:50:28;;;;;;;;;2.67;2.67;;;;;;;;5026963;28;9601;-59
2023/07/06 08:52:54;;;;;;;;;3.50;3.25;;;;;;;;5026751;28;8807;-59
2023/07/06 08:55:19;;;;;;;;;4.00;2.25;;;;;;;;5023299;28;9556;-59
2023/07/06 08:57:45;;;;;;;;;3.67;3.67;;;;;;;;5022395;28;8808;-59
2023/07/06 09:00:31;;;;;;;;;2.00;2.00;;;;;;;;5026332;28;8804;-58
2023/07/06 09:03:04;;;;;;;;;5.00;5.00;;;;;;;;5030020;28;8819;-58
2023/07/06 09:05:32;;;;;;;;;4.50;4.50;;;;;;;;5025012;28;9122;-59
2023/07/06 09:07:58;;;;;;;;;4.67;4.33;;;;;;;;5030762;28;8784;-59
2023/07/06 09:10:27;;;;;;;;;4.33;4.33;;;;;;;;5028315;28;9074;-58
2023/07/06 09:12:53;;;;;;;;;4.00;3.00;;;;;;;;5031061;28;8961;-58
2023/07/06 09:15:24;;;;;;;;;5.50;4.50;;;;;;;;5031161;28;8815;-58
2023/07/06 09:17:50;;;;;;;;;5.00;5.00;;;;;;;;5024120;28;8791;-58
2023/07/06 09:20:16;;;;;;;;;5.75;5.00;;;;;;;;5030486;28;9308;-59
2023/07/06 09:22:42;;;;;;;;;5.00;5.00;;;;;;;;5027425;28;8803;-59
2023/07/06 09:25:20;;;;;;;;;4.33;4.33;;;;;;;;5028555;28;8841;-59
2023/07/06 09:27:49;;;;;;;;;4.00;4.00;;;;;;;;5014084;28;8810;-59
2023/07/06 09:30:36;;;;;;;;;3.75;3.50;;;;;;;;5013224;28;8906;-58
2023/07/06 09:33:16;;;;;;;;;5.50;4.50;;;;;;;;5013464;28;8798;-58
2023/07/06 09:35:42;;;;;;;;;6.25;4.75;;;;;;;;5011713;28;8841;-59
2023/07/06 09:38:12;;;;;;;;;5.00;5.00;;;;;;;;5025683;28;8881;-58
2023/07/06 09:40:38;;;;;;;;;3.00;3.00;;;;;;;;5026114;28;8861;-58
2023/07/06 09:43:03;;;;;;;;;4.00;3.00;;;;;;;;5032349;28;8974;-57
2023/07/06 09:45:30;;;;;;;;;3.67;3.33;;;;;;;;5033194;28;8815;-57
2023/07/06 09:48:18;;;;;;;;;4.00;4.00;;;;;;;;5033305;28;8866;-58
2023/07/06 09:50:48;;;;;;;;;11.33;9.67;;;;;;;;5021973;28;9092;-58
2023/07/06 09:53:30;;;;;;;;;3.50;3.50;;;;;;;;5032796;28;9202;-58
2023/07/06 09:55:55;;;;;;;;;4.50;4.50;;;;;;;;5032414;28;8795;-58
2023/07/06 09:58:24;;;;;;;;;0.00;0.00;;;;;;;;5020787;28;8814;-59
2023/07/06 10:00:54;;;;;;;;;4.25;4.00;;;;;;;;5012942;28;8844;-59
2023/07/06 10:03:38;;;;;;;;;4.75;4.75;;;;;;;;5012005;28;8794;-59
2023/07/06 10:06:07;;;;;;;;;3.25;3.25;;;;;;;;5020887;28;8897;-59
2023/07/06 10:08:43;;;;;;;;;4.00;4.00;;;;;;;;5024517;28;8811;-58
2023/07/06 10:11:09;;;;;;;;;5.33;4.67;;;;;;;;5028652;28;8798;-58
2023/07/06 10:13:37;;;;;;;;;4.33;3.00;;;;;;;;5024687;28;8896;-60
2023/07/06 10:16:12;;;;;;;;;5.25;4.25;;;;;;;;5031706;28;9720;-59
2023/07/06 10:18:50;;;;;;;;;4.75;4.00;;;;;;;;5025304;28;8881;-58
2023/07/06 10:21:21;;;;;;;;;5.00;4.33;;;;;;;;5025730;28;8814;-59
2023/07/06 10:23:52;;;;;;;;;8.67;8.67;;;;;;;;5012675;28;8939;-58
2023/07/06 10:26:27;;;;;;;;;3.00;3.00;;;;;;;;5020220;28;9320;-59
2023/07/06 10:28:59;;;;;;;;;4.00;3.67;;;;;;;;5029992;28;8899;-58
2023/07/06 10:31:31;;;;;;;;;3.67;3.67;;;;;;;;5021598;28;9018;-60
2023/07/06 10:33:57;;;;;;;;;4.33;4.33;;;;;;;;5031934;28;8883;-58
2023/07/06 10:36:25;;;;;;;;;4.67;4.67;;;;;;;;5031952;28;8989;-58
2023/07/06 10:38:50;;;;;;;;;9.00;6.33;;;;;;;;5032263;28;9545;-58
2023/07/06 10:41:18;;;;;;;;;6.67;6.33;;;;;;;;5032258;28;9379;-61
2023/07/06 10:43:43;;;;;;;;;4.67;4.67;;;;;;;;5030438;28;9595;-60
2023/07/06 10:46:27;;;;;;;;;5.33;3.67;;;;;;;;5022444;28;9172;-58
2023/07/06 10:48:59;;;;;;;;;4.00;4.00;;;;;;;;5011639;28;8837;-59
2023/07/06 10:51:27;;;;;;;;;4.50;4.50;;;;;;;;5021693;28;8975;-59
2023/07/06 10:54:16;;;;;;;;;7.33;5.00;;;;;;;;5012869;28;8888;-59
2023/07/06 10:56:45;;;;;;;;;3.50;3.50;;;;;;;;5011827;28;8966;-58
2023/07/06 10:59:15;;;;;;;;;4.33;3.33;;;;;;;;5018554;28;8826;-58
2023/07/06 11:01:46;;;;;;;;;4.00;4.00;;;;;;;;5021273;28;9125;-58
2023/07/06 11:04:30;;;;;;;;;6.00;5.00;;;;;;;;5010209;28;9155;-59
2023/07/06 11:06:55;;;;;;;;;3.33;3.33;;;;;;;;5011619;28;8999;-59
2023/07/06 11:09:22;;;;;;;;;5.67;5.00;;;;;;;;5025392;28;8880;-59
2023/07/06 11:12:08;;;;;;;;;2.33;2.33;;;;;;;;5031040;28;8895;-59
2023/07/06 11:14:38;;;;;;;;;3.67;3.67;;;;;;;;5030092;28;8895;-59
2023/07/06 11:17:10;;;;;;;;;5.00;5.00;;;;;;;;5028024;28;9015;-59
2023/07/06 11:19:42;;;;;;;;;3.67;3.33;;;;;;;;5031037;28;8982;-59
2023/07/06 11:22:11;;;;;;;;;2.00;2.00;;;;;;;;5031096;28;8967;-59
2023/07/06 11:24:38;;;;;;;;;8.33;8.00;;;;;;;;5031228;28;9146;-58
2023/07/06 11:27:06;;;;;;;;;4.00;4.00;;;;;;;;5030932;28;9273;-58
2023/07/06 11:29:33;;;;;;;;;3.00;3.00;;;;;;;;5030221;28;9042;-59
2023/07/06 11:32:18;;;;;;;;;4.00;4.00;;;;;;;;5014615;28;8882;-59
2023/07/06 11:34:56;;;;;;;;;4.00;4.00;;;;;;;;5011112;28;9043;-60
2023/07/06 11:37:31;;;;;;;;;5.00;5.00;;;;;;;;5018772;28;8822;-60
2023/07/06 11:40:15;;;;;;;;;4.67;4.67;;;;;;;;5027161;28;8968;-59
2023/07/06 11:42:47;;;;;;;;;5.00;5.00;;;;;;;;5030815;28;8955;-59
2023/07/06 11:45:16;;;;;;;;;5.33;5.00;;;;;;;;5026634;28;8967;-60
2023/07/06 11:47:41;;;;;;;;;4.33;4.33;;;;;;;;5011457;28;8926;-59
2023/07/06 11:50:11;;;;;;;;;3.00;3.00;;;;;;;;5023329;28;8890;-58
2023/07/06 11:52:40;;;;;;;;;5.67;5.00;;;;;;;;5022744;28;8818;-59
2023/07/06 11:55:34;;;;;;;;;5.67;5.00;;;;;;;;5010905;28;9054;-59
2023/07/06 11:58:29;;;;;;;;;4.00;2.67;;;;;;;;5011375;28;9016;-58
2023/07/06 12:01:10;;;;;;;;;4.00;4.00;;;;;;;;5020426;28;9069;-59
2023/07/06 12:03:36;;;;;;;;;4.33;3.33;;;;;;;;5029786;28;9122;-60
2023/07/06 12:06:02;;;;;;;;;5.00;5.00;;;;;;;;5030558;28;8895;-59
2023/07/06 12:08:29;;;;;;;;;2.00;2.00;;;;;;;;5030607;28;8838;-59
2023/07/06 12:11:14;;;;;;;;;2.00;2.00;;;;;;;;5028804;28;8975;-60
2023/07/06 12:13:41;;;;;;;;;3.00;3.00;;;;;;;;5010468;28;9717;-58
2023/07/06 12:16:18;;;;;;;;;4.33;4.00;;;;;;;;5010837;28;8868;-58
2023/07/06 12:18:47;;;;;;;;;4.00;4.00;;;;;;;;5017278;28;8885;-58
2023/07/06 12:21:26;;;;;;;;;4.00;4.00;;;;;;;;5016728;28;9155;-59
2023/07/06 12:23:51;;;;;;;;;5.00;5.00;;;;;;;;5010919;28;9047;-59
2023/07/06 12:26:16;;;;;;;;;3.67;3.67;;;;;;;;5010967;28;9014;-59
2023/07/06 12:28:49;;;;;;;;;6.33;5.00;;;;;;;;5010739;28;8828;-59
2023/07/06 12:31:15;;;;;;;;;5.00;4.67;;;;;;;;5009170;28;9556;-58
2023/07/06 12:33:42;;;;;;;;;4.00;4.00;;;;;;;;5018021;28;9200;-58
2023/07/06 12:36:09;;;;;;;;;2.50;2.50;;;;;;;;5015002;28;8954;-59
2023/07/06 12:38:35;;;;;;;;;4.67;4.33;;;;;;;;5010843;28;8828;-60
2023/07/06 12:41:11;;;;;;;;;4.33;4.00;;;;;;;;5010318;28;9001;-59
2023/07/06 12:43:36;;;;;;;;;3.33;3.33;;;;;;;;5022362;28;8795;-59
2023/07/06 12:46:03;;;;;;;;;5.00;4.67;;;;;;;;5020561;28;9092;-60
2023/07/06 12:48:29;;;;;;;;;4.67;4.67;;;;;;;;5027241;28;8791;-59
2023/07/06 12:50:55;;;;;;;;;4.00;2.33;;;;;;;;5015721;28;8988;-59
2023/07/06 12:53:38;;;;;;;;;5.67;5.00;;;;;;;;5014834;28;8876;-59
2023/07/06 12:56:13;;;;;;;;;4.33;3.67;;;;;;;;5010369;28;9647;-59
2023/07/06 12:58:44;;;;;;;;;4.00;4.00;;;;;;;;5009899;28;8995;-60
2023/07/06 13:01:18;;;;;;;;;4.00;4.00;;;;;;;;5010312;28;9143;-59
2023/07/06 13:03:56;;;;;;;;;4.00;4.00;;;;;;;;5026283;28;8985;-58
2023/07/06 13:06:24;;;;;;;;;7.33;7.33;;;;;;;;5013130;28;9928;-59
2023/07/06 13:08:53;;;;;;;;;5.00;5.00;;;;;;;;5019108;28;9788;-59
2023/07/06 13:11:21;;;;;;;;;5.00;4.67;;;;;;;;5024547;28;9686;-60
2023/07/06 13:13:49;;;;;;;;;6.00;6.00;;;;;;;;5019172;28;9221;-59
2023/07/06 13:16:18;;;;;;;;;6.00;6.00;;;;;;;;5025125;28;9047;-59
2023/07/06 13:18:45;;;;;;;;;4.67;4.67;;;;;;;;5014525;28;8992;-58
2023/07/06 13:21:13;;;;;;;;;5.33;5.33;;;;;;;;5037516;28;9052;-60
2023/07/06 13:23:38;;;;;;;;;7.00;6.00;;;;;;;;5009890;28;9042;-58
2023/07/06 13:26:05;;;;;;;;;6.33;6.00;;;;;;;;5008270;28;8951;-59
2023/07/06 13:28:31;;;;;;;;;5.50;5.00;;;;;;;;5009314;28;8787;-59
2023/07/06 13:30:57;;;;;;;;;6.00;5.67;;;;;;;;5009703;28;8830;-59
2023/07/06 13:33:22;;;;;;;;;6.00;6.00;;;;;;;;5009440;28;9186;-59
2023/07/06 13:35:48;;;;;;;;;4.00;4.00;;;;;;;;5028180;28;8807;-60
2023/07/06 13:38:13;;;;;;;;;5.00;4.00;;;;;;;;5012780;28;8819;-59
2023/07/06 13:40:40;;;;;;;;;5.33;5.00;;;;;;;;5028083;28;8854;-60
2023/07/06 13:43:09;;;;;;;;;4.00;4.00;;;;;;;;5028992;28;8813;-60
2023/07/06 13:45:37;;;;;;;;;5.00;5.00;;;;;;;;5029438;28;8989;-60
2023/07/06 13:48:03;;;;;;;;;7.00;6.00;;;;;;;;5031506;28;8863;-59
2023/07/06 13:50:29;;;;;;;;;4.33;4.33;;;;;;;;5031611;28;9193;-59
2023/07/06 13:52:55;;;;;;;;;4.67;4.33;;;;;;;;5031504;28;9979;-60
2023/07/06 13:55:42;;;;;;;;;5.33;5.33;;;;;;;;5032965;28;8837;-59
2023/07/06 13:58:10;;;;;;;;;5.00;5.00;;;;;;;;5032970;28;11504;-59
2023/07/06 14:00:35;;;;;;;;;6.67;5.67;;;;;;;;5032559;28;9054;-59
2023/07/06 14:03:00;;;;;;;;;5.67;5.33;;;;;;;;5032920;28;9147;-60
2023/07/06 14:05:26;;;;;;;;;3.67;3.67;;;;;;;;5027455;28;8964;-59
2023/07/06 14:07:51;;;;;;;;;4.33;4.33;;;;;;;;5024587;28;8837;-62
2023/07/06 14:10:17;;;;;;;;;6.00;5.00;;;;;;;;5032297;28;8827;-60
2023/07/06 14:12:43;;;;;;;;;3.00;3.00;;;;;;;;5015423;28;8813;-60
2023/07/06 14:15:10;;;;;;;;;7.00;6.33;;;;;;;;5012337;28;9160;-60
2023/07/06 14:17:35;;;;;;;;;5.00;5.00;;;;;;;;5012612;28;8821;-60
2023/07/06 14:20:01;;;;;;;;;4.00;4.00;;;;;;;;5012147;28;9118;-59
2023/07/06 14:22:26;;;;;;;;;8.00;6.00;;;;;;;;5020869;28;8958;-59
2023/07/06 14:24:51;;;;;;;;;4.67;4.67;;;;;;;;5031793;28;8847;-60
2023/07/06 14:27:17;;;;;;;;;4.00;4.00;;;;;;;;5012898;28;8833;-59
2023/07/06 14:29:45;;;;;;;;;4.67;4.33;;;;;;;;5012285;28;8841;-59
2023/07/06 14:32:15;;;;;;;;;5.25;4.75;;;;;;;;5011998;28;8900;-60
2023/07/06 14:34:40;;;;;;;;;4.50;4.25;;;;;;;;5011991;28;8824;-60
2023/07/06 14:37:05;;;;;;;;;5.33;4.33;;;;;;;;5012133;28;8802;-59
2023/07/06 14:39:30;;;;;;;;;8.33;7.67;;;;;;;;5023212;28;8965;-59
2023/07/06 14:41:56;;;;;;;;;5.00;4.67;;;;;;;;5013394;28;8829;-59
2023/07/06 14:44:21;;;;;;;;;6.00;5.33;;;;;;;;5012119;28;8822;-59
2023/07/06 14:46:46;;;;;;;;;7.00;6.00;;;;;;;;5010552;28;8844;-60
2023/07/06 14:49:11;;;;;;;;;5.33;5.33;;;;;;;;5015555;28;8831;-59
2023/07/06 14:51:37;;;;;;;;;8.00;7.00;;;;;;;;5031397;28;8830;-62
2023/07/06 14:54:03;;;;;;;;;12.00;10.67;;;;;;;;5014185;28;9630;-60
2023/07/06 14:56:29;;;;;;;;;5.25;4.50;;;;;;;;5027038;28;8801;-59
2023/07/06 14:58:57;;;;;;;;;6.00;6.00;;;;;;;;5012218;28;8816;-60
2023/07/06 15:01:22;;;;;;;;;4.00;4.00;;;;;;;;5011771;28;8810;-64
2023/07/06 15:03:48;;;;;;;;;7.33;7.33;;;;;;;;5011673;28;8822;-60
2023/07/06 15:06:15;;;;;;;;;5.33;5.33;;;;;;;;5020845;28;9537;-61
2023/07/06 15:08:40;;;;;;;;;6.00;5.00;;;;;;;;5026539;28;8787;-60
2023/07/06 15:11:06;;;;;;;;;5.00;5.00;;;;;;;;5028262;28;9067;-59
2023/07/06 15:13:31;;;;;;;;;5.33;5.00;;;;;;;;5026180;28;8811;-60
2023/07/06 15:15:57;;;;;;;;;6.33;6.00;;;;;;;;5026779;28;8843;-59
2023/07/06 15:18:22;;;;;;;;;5.33;5.33;;;;;;;;5026218;28;8954;-60
2023/07/06 15:20:47;;;;;;;;;6.33;5.33;;;;;;;;5011171;28;8884;-60
2023/07/06 15:23:12;;;;;;;;;5.00;4.00;;;;;;;;5011685;28;8868;-60
2023/07/06 15:25:38;;;;;;;;;5.00;5.00;;;;;;;;5011361;28;8977;-59
2023/07/06 15:28:03;;;;;;;;;6.33;6.33;;;;;;;;5011409;28;9630;-60
2023/07/06 15:30:28;;;;;;;;;5.00;5.00;;;;;;;;5010777;28;9528;-60
2023/07/06 15:32:53;;;;;;;;;5.00;5.00;;;;;;;;5023263;28;8811;-59
2023/07/06 15:35:19;;;;;;;;;4.00;4.00;;;;;;;;5023364;28;8820;-60
2023/07/06 15:37:44;;;;;;;;;6.00;6.00;;;;;;;;5028710;28;8811;-58
2023/07/06 15:40:09;;;;;;;;;6.33;5.00;;;;;;;;5028040;28;8901;-60
2023/07/06 15:42:34;;;;;;;;;6.00;6.00;;;;;;;;5028789;28;8827;-59
2023/07/06 15:45:00;;;;;;;;;7.00;6.00;;;;;;;;5030086;28;8827;-60
2023/07/06 15:47:26;;;;;;;;;6.00;6.00;;;;;;;;5015111;28;9106;-60
2023/07/06 15:49:52;;;;;;;;;2.00;2.00;;;;;;;;5010782;28;8898;-60
2023/07/06 15:52:17;;;;;;;;;4.00;4.00;;;;;;;;5012779;28;8795;-59
2023/07/06 15:54:43;;;;;;;;;5.33;5.00;;;;;;;;5030029;28;8992;-59
2023/07/06 15:57:08;;;;;;;;;5.33;5.33;;;;;;;;5030698;28;8809;-61
2023/07/06 15:59:33;;;;;;;;;5.00;5.00;;;;;;;;5030677;28;8934;-62
2023/07/06 16:01:58;;;;;;;;;6.00;6.00;;;;;;;;5030633;28;8878;-59
2023/07/06 16:04:27;;;;;;;;;7.67;7.00;;;;;;;;5030473;28;9517;-60
2023/07/06 16:06:52;;;;;;;;;6.00;6.00;;;;;;;;5029332;28;8807;-59
2023/07/06 16:09:17;;;;;;;;;5.00;5.00;;;;;;;;5028296;28;8847;-60
2023/07/06 16:11:43;;;;;;;;;5.00;5.00;;;;;;;;5021595;28;8841;-60
2023/07/06 16:14:09;;;;;;;;;7.00;6.67;;;;;;;;5028166;28;8823;-63
2023/07/06 16:16:34;;;;;;;;;8.33;8.00;;;;;;;;5028494;28;8997;-60
2023/07/06 16:18:59;;;;;;;;;6.67;4.67;;;;;;;;5009904;28;8830;-60
2023/07/06 16:21:25;;;;;;;;;5.00;5.00;;;;;;;;5015363;28;8937;-60
2023/07/06 16:23:50;;;;;;;;;6.00;6.00;;;;;;;;5027943;28;8855;-60
2023/07/06 16:26:18;;;;;;;;;6.00;5.67;;;;;;;;5030291;28;8823;-60
2023/07/06 16:28:45;;;;;;;;;6.00;5.75;;;;;;;;5030358;28;8796;-59
2023/07/06 16:31:11;;;;;;;;;8.67;8.00;;;;;;;;5030549;28;8853;-59
2023/07/06 16:33:37;;;;;;;;;13.00;11.67;;;;;;;;5029754;28;8984;-60
2023/07/06 16:36:03;;;;;;;;;8.00;8.00;;;;;;;;5030133;28;8902;-60
2023/07/06 16:38:28;;;;;;;;;6.00;5.00;;;;;;;;5014842;28;8823;-60
2023/07/06 16:40:53;;;;;;;;;6.00;5.00;;;;;;;;5018320;28;8920;-60
2023/07/06 16:43:19;;;;;;;;;7.00;6.00;;;;;;;;5010345;28;8822;-60
2023/07/06 16:45:45;;;;;;;;;5.00;4.67;;;;;;;;5021236;28;8877;-60
2023/07/06 16:48:11;;;;;;;;;7.00;7.00;;;;;;;;5008943;28;8842;-60
2023/07/06 16:50:36;;;;;;;;;6.00;5.67;;;;;;;;5009507;28;8999;-60
2023/07/06 16:53:01;;;;;;;;;7.33;7.00;;;;;;;;5027228;28;8881;-60
2023/07/06 16:55:27;;;;;;;;;8.00;8.00;;;;;;;;5028777;28;8849;-60
2023/07/06 16:57:52;;;;;;;;;5.67;5.67;;;;;;;;5030267;28;8811;-61
2023/07/06 17:00:17;;;;;;;;;11.00;10.00;;;;;;;;5029880;28;9072;-60
2023/07/06 17:02:43;;;;;;;;;6.67;6.67;;;;;;;;5029851;28;8934;-59
2023/07/06 17:05:08;;;;;;;;;8.67;8.67;;;;;;;;5024222;28;9626;-60
2023/07/06 17:07:33;;;;;;;;;10.00;10.00;;;;;;;;5017395;28;8909;-63
2023/07/06 17:09:59;;;;;;;;;5.67;5.67;;;;;;;;5028844;28;8827;-60
2023/07/06 17:12:24;;;;;;;;;7.00;6.33;;;;;;;;5016353;28;8852;-60
2023/07/06 17:14:49;;;;;;;;;8.00;8.00;;;;;;;;5009074;28;8853;-60